Time;durP1;ratioP1;P1;durP2;ratioP2;P2;SDS_P1;SDS_P2;PMS_P1;PMS_P2;Temp;Humidity;BMP_temperature;BMP_pressure;BME280_temperature;BME280_humidity;BME280_pressure;Samples;Min_cycle;Max_cycle;Signal;HPM_P1;HPM_P2
2023/05/31 00:01:56;;;;;;;4.95;2.13;;;16.70;99.90;;;;;;5023430;28;20299;-73
2023/05/31 00:04:21;;;;;;;2.55;1.88;;;16.60;99.90;;;;;;5009098;28;20591;-73
2023/05/31 00:06:47;;;;;;;5.15;1.92;;;16.70;99.90;;;;;;5025650;28;20208;-72
2023/05/31 00:09:12;;;;;;;3.83;1.77;;;16.70;99.90;;;;;;5019736;28;20220;-72
2023/05/31 00:11:38;;;;;;;4.60;2.22;;;16.70;99.90;;;;;;5024468;28;20208;-73
2023/05/31 00:14:04;;;;;;;3.50;2.00;;;16.70;99.90;;;;;;5028541;28;20204;-73
2023/05/31 00:16:29;;;;;;;5.97;1.90;;;16.70;99.90;;;;;;5027945;28;20590;-72
2023/05/31 00:18:55;;;;;;;7.47;1.80;;;16.60;99.90;;;;;;5010456;28;20200;-73
2023/05/31 00:21:21;;;;;;;2.70;1.90;;;16.60;99.90;;;;;;5011409;28;20225;-72
2023/05/31 00:23:47;;;;;;;5.72;2.25;;;16.60;99.90;;;;;;5026655;28;20172;-73
2023/05/31 00:26:13;;;;;;;3.70;2.03;;;16.60;99.90;;;;;;5026706;28;20209;-71
2023/05/31 00:28:38;;;;;;;4.55;2.13;;;16.60;99.90;;;;;;5006488;28;20231;-73
2023/05/31 00:31:04;;;;;;;5.30;2.10;;;16.50;99.90;;;;;;5025454;28;20204;-73
2023/05/31 00:33:30;;;;;;;2.95;1.98;;;16.50;99.90;;;;;;5021923;28;20241;-71
2023/05/31 00:35:55;;;;;;;5.38;2.03;;;16.30;99.90;;;;;;5027508;28;20705;-73
2023/05/31 00:38:21;;;;;;;2.80;1.85;;;16.30;99.90;;;;;;5020413;28;20205;-71
2023/05/31 00:40:47;;;;;;;3.47;1.90;;;16.20;99.90;;;;;;5011245;28;20228;-73
2023/05/31 00:43:13;;;;;;;4.70;1.98;;;16.30;99.90;;;;;;5021398;28;20239;-70
2023/05/31 00:45:39;;;;;;;4.78;1.90;;;16.30;99.90;;;;;;5023321;28;20212;-72
2023/05/31 00:48:05;;;;;;;2.35;1.67;;;16.20;99.90;;;;;;5024577;28;20251;-72
2023/05/31 00:50:31;;;;;;;5.82;2.25;;;16.20;99.90;;;;;;5027534;28;20263;-71
2023/05/31 00:52:59;;;;;;;3.50;2.28;;;16.10;99.90;;;;;;5032302;28;20207;-72
2023/05/31 00:55:25;;;;;;;5.15;2.13;;;16.00;99.90;;;;;;5030896;28;20295;-71
2023/05/31 00:57:51;;;;;;;5.30;2.40;;;15.80;99.90;;;;;;5015198;28;20657;-72
2023/05/31 01:00:18;;;;;;;4.63;2.05;;;15.60;99.90;;;;;;5030633;28;20204;-71
2023/05/31 01:02:43;;;;;;;6.10;2.15;;;15.70;99.90;;;;;;5010732;28;20212;-72
2023/05/31 01:05:10;;;;;;;5.35;2.83;;;15.70;99.90;;;;;;5028824;28;20204;-72
2023/05/31 01:07:36;;;;;;;7.47;2.22;;;15.50;99.90;;;;;;5029227;28;20213;-72
2023/05/31 01:10:04;;;;;;;6.45;2.00;;;15.40;99.90;;;;;;5015559;28;20238;-72
2023/05/31 01:13:12;;;;;;;4.07;1.73;;;15.20;99.90;;;;;;5025386;28;20630;-71
2023/05/31 01:15:54;;;;;;;3.95;2.03;;;15.30;99.90;;;;;;5024501;28;20212;-72
2023/05/31 01:18:54;;;;;;;3.35;1.80;;;15.30;99.90;;;;;;5024808;28;20223;-71
2023/05/31 01:21:27;;;;;;;3.58;1.70;;;15.10;99.90;;;;;;5005733;28;20411;-71
2023/05/31 01:24:14;;;;;;;3.92;2.10;;;15.20;99.90;;;;;;5024960;28;20180;-71
2023/05/31 01:26:43;;;;;;;3.90;2.20;;;15.30;99.90;;;;;;5022996;28;20212;-71
2023/05/31 01:29:20;;;;;;;4.28;1.90;;;15.10;99.90;;;;;;5028383;28;20204;-72
2023/05/31 01:31:48;;;;;;;4.13;2.00;;;15.10;99.90;;;;;;5031466;28;20217;-71
2023/05/31 01:34:14;;;;;;;3.58;1.80;;;15.30;99.90;;;;;;5030491;28;20201;-71
2023/05/31 01:36:40;;;;;;;5.72;3.33;;;15.40;99.90;;;;;;5029104;28;20212;-72
2023/05/31 01:39:07;;;;;;;5.55;2.58;;;15.50;99.90;;;;;;5030073;28;20694;-73
2023/05/31 01:41:40;;;;;;;4.88;2.65;;;15.60;99.90;;;;;;5027992;28;20228;-71
2023/05/31 01:44:07;;;;;;;5.38;2.22;;;15.60;99.90;;;;;;5028452;28;20209;-72
2023/05/31 01:46:33;;;;;;;7.85;2.20;;;15.60;99.90;;;;;;5026152;28;20212;-71
2023/05/31 01:49:01;;;;;;;4.32;2.00;;;15.60;99.90;;;;;;5027775;28;20222;-73
2023/05/31 01:51:28;;;;;;;4.80;2.13;;;15.60;99.90;;;;;;5026728;28;20220;-71
2023/05/31 01:53:54;;;;;;;4.95;2.15;;;15.50;99.90;;;;;;5025892;28;20526;-71
2023/05/31 01:56:21;;;;;;;4.68;2.17;;;15.50;99.90;;;;;;5005736;28;20265;-71
2023/05/31 01:58:50;;;;;;;6.20;2.05;;;15.50;99.90;;;;;;5024058;28;20304;-71
2023/05/31 02:01:17;;;;;;;4.43;2.17;;;15.50;99.90;;;;;;5012392;28;20204;-71
2023/05/31 02:03:43;;;;;;;3.38;2.10;;;15.50;99.90;;;;;;5021694;28;20220;-71
2023/05/31 02:06:12;;;;;;;3.92;2.08;;;15.40;99.90;;;;;;5026204;28;20255;-71
2023/05/31 02:08:39;;;;;;;5.28;2.50;;;15.40;99.90;;;;;;5011599;28;20180;-71
2023/05/31 02:11:05;;;;;;;2.72;1.70;;;15.30;99.90;;;;;;5013678;28;20219;-72
2023/05/31 02:13:31;;;;;;;3.38;1.83;;;15.20;99.90;;;;;;5012517;28;20212;-72
2023/05/31 02:15:57;;;;;;;5.85;2.20;;;15.20;99.90;;;;;;5026127;28;20200;-72
2023/05/31 02:18:26;;;;;;;5.38;2.08;;;15.20;99.90;;;;;;5026183;28;20698;-72
2023/05/31 02:20:52;;;;;;;5.63;2.20;;;15.20;99.90;;;;;;5013446;28;20660;-71
2023/05/31 02:23:18;;;;;;;2.93;1.90;;;15.10;99.90;;;;;;5013285;28;20231;-72
2023/05/31 02:25:50;;;;;;;6.25;2.10;;;15.10;99.90;;;;;;5024482;28;20205;-71
2023/05/31 02:28:17;;;;;;;3.63;2.13;;;15.00;99.90;;;;;;5007878;28;20726;-71
2023/05/31 02:30:59;;;;;;;3.00;2.28;;;15.00;99.90;;;;;;5011616;28;20204;-72
2023/05/31 02:33:26;;;;;;;3.97;2.17;;;15.00;99.90;;;;;;5024188;28;20204;-72
2023/05/31 02:35:52;;;;;;;8.18;2.60;;;14.90;99.90;;;;;;5027341;28;20172;-72
2023/05/31 02:38:19;;;;;;;4.80;2.00;;;14.80;99.90;;;;;;5023031;28;20274;-71
2023/05/31 02:40:45;;;;;;;3.78;2.30;;;14.70;99.90;;;;;;5011517;28;20699;-71
2023/05/31 02:43:11;;;;;;;3.60;2.25;;;14.70;99.90;;;;;;5004223;28;20226;-72
2023/05/31 02:45:37;;;;;;;4.47;2.00;;;14.70;99.90;;;;;;5023104;28;20208;-71
2023/05/31 02:48:05;;;;;;;4.68;2.10;;;14.70;99.90;;;;;;5017624;28;20177;-72
2023/05/31 02:50:30;;;;;;;4.78;2.15;;;14.60;99.90;;;;;;5006271;28;20267;-72
2023/05/31 02:52:56;;;;;;;5.18;1.80;;;14.60;99.90;;;;;;5018658;28;20284;-72
2023/05/31 02:55:22;;;;;;;5.40;2.05;;;14.60;99.90;;;;;;5006133;28;20720;-71
2023/05/31 02:57:48;;;;;;;6.80;2.17;;;14.60;99.90;;;;;;5019035;28;20619;-71
2023/05/31 03:00:13;;;;;;;5.97;2.38;;;14.60;99.90;;;;;;5007339;28;20168;-71
2023/05/31 03:02:40;;;;;;;6.00;2.10;;;14.60;99.90;;;;;;5005729;28;20211;-71
2023/05/31 03:05:08;;;;;;;4.25;2.50;;;14.70;99.90;;;;;;5020579;28;20204;-72
2023/05/31 03:07:35;;;;;;;5.20;1.77;;;14.60;99.90;;;;;;5006508;28;20252;-72
2023/05/31 03:10:00;;;;;;;6.63;2.13;;;14.70;99.90;;;;;;5020945;28;20207;-72
2023/05/31 03:12:26;;;;;;;4.18;1.92;;;14.70;99.90;;;;;;5020375;28;20212;-72
2023/05/31 03:14:52;;;;;;;8.57;2.65;;;14.70;99.90;;;;;;5019867;28;20181;-72
2023/05/31 03:17:18;;;;;;;4.10;2.22;;;14.80;99.90;;;;;;5021450;28;20770;-72
2023/05/31 03:19:43;;;;;;;6.88;2.10;;;14.80;99.90;;;;;;5021551;28;20300;-71
2023/05/31 03:22:09;;;;;;;7.07;1.92;;;14.90;99.90;;;;;;5011530;28;20583;-72
2023/05/31 03:24:35;;;;;;;3.65;1.92;;;14.80;99.90;;;;;;5000320;28;20208;-72
2023/05/31 03:27:00;;;;;;;13.73;2.47;;;14.80;99.90;;;;;;5018224;28;20180;-72
2023/05/31 03:29:26;;;;;;;3.28;2.05;;;14.90;99.90;;;;;;5022439;28;20549;-71
2023/05/31 03:31:52;;;;;;;4.60;2.10;;;15.20;99.90;;;;;;5018819;28;20267;-72
2023/05/31 03:34:18;;;;;;;2.28;1.77;;;15.40;99.90;;;;;;5020487;28;20220;-72
2023/05/31 03:36:43;;;;;;;2.80;2.00;;;15.80;99.90;;;;;;5001930;28;20207;-72
2023/05/31 03:39:09;;;;;;;6.63;2.40;;;16.00;99.90;;;;;;5020682;28;20612;-72
2023/05/31 03:41:35;;;;;;;4.63;2.05;;;16.40;99.90;;;;;;5020496;28;20250;-72
2023/05/31 03:44:00;;;;;;;6.53;2.33;;;16.60;99.90;;;;;;5001067;28;20204;-72
2023/05/31 03:46:26;;;;;;;6.13;2.30;;;17.00;99.90;;;;;;5007998;28;20215;-72
2023/05/31 03:48:53;;;;;;;5.28;2.30;;;17.90;99.90;;;;;;5020596;28;20288;-72
2023/05/31 03:51:18;;;;;;;5.18;2.40;;;18.60;99.90;;;;;;5009141;28;20622;-73
2023/05/31 03:53:44;;;;;;;7.22;2.60;;;18.90;99.90;;;;;;5018214;28;20243;-72
2023/05/31 03:56:10;;;;;;;7.75;2.17;;;19.60;99.90;;;;;;5021689;28;20214;-72
2023/05/31 03:58:35;;;;;;;3.37;2.30;;;20.10;99.90;;;;;;5007235;28;20438;-72
2023/05/31 04:01:02;;;;;;;5.63;2.38;;;20.50;99.90;;;;;;5020810;28;20211;-72
2023/05/31 04:03:28;;;;;;;3.38;2.05;;;20.50;99.90;;;;;;5003601;28;20303;-72
2023/05/31 04:05:54;;;;;;;4.70;1.90;;;20.20;99.90;;;;;;5018738;28;20195;-72
2023/05/31 04:08:19;;;;;;;5.47;2.67;;;21.00;99.90;;;;;;5020338;28;20316;-72
2023/05/31 04:10:45;;;;;;;5.80;2.90;;;21.30;99.90;;;;;;5003536;28;20212;-73
2023/05/31 04:13:11;;;;;;;4.25;2.28;;;21.60;99.90;;;;;;5019488;28;20733;-72
2023/05/31 04:15:37;;;;;;;4.78;2.50;;;22.00;99.90;;;;;;5019907;28;20254;-73
2023/05/31 04:18:03;;;;;;;6.93;2.60;;;22.30;99.90;;;;;;5003214;28;20617;-73
2023/05/31 04:20:28;;;;;;;3.22;2.00;;;21.40;99.90;;;;;;5007846;28;20184;-73
2023/05/31 04:22:54;;;;;;;4.43;2.50;;;22.30;99.90;;;;;;5021913;28;20243;-73
2023/05/31 04:25:20;;;;;;;5.28;2.53;;;22.30;99.90;;;;;;5025304;28;20204;-72
2023/05/31 04:27:46;;;;;;;8.38;2.42;;;22.40;99.90;;;;;;5021374;28;20746;-73
2023/05/31 04:30:12;;;;;;;6.25;2.30;;;23.00;99.90;;;;;;5025002;28;20208;-72
2023/05/31 04:32:38;;;;;;;6.47;3.05;;;23.70;99.90;;;;;;5010967;28;20256;-70
2023/05/31 04:35:05;;;;;;;6.05;2.65;;;24.10;99.00;;;;;;5023047;28;20250;-70
2023/05/31 04:37:31;;;;;;;4.55;2.00;;;24.50;98.30;;;;;;5012100;28;20211;-73
2023/05/31 04:39:57;;;;;;;5.25;2.10;;;24.50;97.00;;;;;;5023454;28;20247;-73
2023/05/31 04:42:26;;;;;;;6.13;2.30;;;24.30;97.10;;;;;;5007458;28;20229;-70
2023/05/31 04:45:01;;;;;;;3.33;2.10;;;24.60;96.20;;;;;;5022643;28;20718;-71
2023/05/31 04:47:30;;;;;;;5.10;2.22;;;24.90;95.50;;;;;;5020887;28;20204;-71
2023/05/31 04:49:57;;;;;;;6.30;2.40;;;24.60;94.90;;;;;;5006417;28;20278;-71
2023/05/31 04:52:30;;;;;;;5.03;2.70;;;25.20;94.60;;;;;;5008574;28;20780;-72
2023/05/31 04:54:57;;;;;;;6.72;2.80;;;25.60;93.80;;;;;;5020566;28;20216;-72
2023/05/31 04:57:24;;;;;;;6.10;2.70;;;25.70;92.80;;;;;;5024644;28;20778;-72
2023/05/31 04:59:50;;;;;;;4.93;2.92;;;26.10;92.30;;;;;;5021775;28;20184;-72
2023/05/31 05:02:17;;;;;;;3.15;2.40;;;25.90;91.70;;;;;;5023778;28;20295;-72
2023/05/31 05:04:43;;;;;;;4.80;2.50;;;26.20;90.70;;;;;;5007827;28;20279;-71
2023/05/31 05:07:09;;;;;;;5.60;2.90;;;25.90;91.40;;;;;;5010992;28;20624;-72
2023/05/31 05:09:35;;;;;;;6.88;2.50;;;25.50;91.20;;;;;;5024528;28;20199;-72
2023/05/31 05:12:02;;;;;;;11.68;3.83;;;26.30;90.90;;;;;;5007462;28;20201;-72
2023/05/31 05:14:29;;;;;;;7.28;2.92;;;27.00;90.10;;;;;;5023500;28;20259;-72
2023/05/31 05:16:54;;;;;;;7.53;2.55;;;26.90;88.30;;;;;;5023131;28;20755;-73
2023/05/31 05:19:20;;;;;;;5.07;2.90;;;26.00;88.00;;;;;;5024893;28;20304;-73
2023/05/31 05:21:46;;;;;;;7.72;3.20;;;25.30;89.30;;;;;;5014349;28;20218;-72
2023/05/31 05:24:12;;;;;;;9.40;3.20;;;24.50;90.60;;;;;;5013976;28;20272;-70
2023/05/31 05:26:37;;;;;;;7.18;2.95;;;25.20;91.10;;;;;;5031335;28;20212;-73
2023/05/31 05:29:03;;;;;;;7.18;3.20;;;26.30;90.00;;;;;;5029591;28;20212;-72
2023/05/31 05:31:29;;;;;;;8.25;3.40;;;27.10;87.80;;;;;;5029542;28;20612;-73
2023/05/31 05:33:54;;;;;;;6.60;3.00;;;27.40;86.90;;;;;;5026976;28;20232;-72
2023/05/31 05:36:21;;;;;;;6.35;3.05;;;27.20;85.90;;;;;;5028875;28;20587;-72
2023/05/31 05:38:46;;;;;;;6.07;2.72;;;27.90;84.60;;;;;;5012565;28;20224;-73
2023/05/31 05:41:12;;;;;;;9.20;3.17;;;27.60;83.10;;;;;;5027383;28;20694;-71
2023/05/31 05:43:41;;;;;;;5.68;2.78;;;27.80;84.60;;;;;;5024748;28;20715;-72
2023/05/31 05:46:07;;;;;;;6.38;2.80;;;28.10;83.80;;;;;;5025355;28;20218;-73
2023/05/31 05:48:33;;;;;;;6.95;2.63;;;28.80;81.60;;;;;;5024360;28;20212;-72
2023/05/31 05:50:59;;;;;;;6.57;2.80;;;28.80;80.60;;;;;;5027422;28;20659;-72
2023/05/31 05:53:25;;;;;;;6.13;2.70;;;28.40;80.40;;;;;;5023323;28;20216;-72
2023/05/31 05:55:54;;;;;;;7.85;3.00;;;28.00;81.00;;;;;;5010972;28;20642;-72
2023/05/31 05:58:20;;;;;;;23.90;16.67;;;28.50;80.00;;;;;;5014132;28;20211;-72
2023/05/31 06:00:46;;;;;;;14.73;7.53;;;27.70;79.80;;;;;;5030868;28;20295;-72
2023/05/31 06:03:12;;;;;;;6.35;3.22;;;27.80;81.50;;;;;;5030372;28;20196;-71
2023/05/31 06:05:38;;;;;;;7.65;3.13;;;27.80;81.50;;;;;;5030003;28;20492;-72
2023/05/31 06:08:04;;;;;;;6.85;3.17;;;28.80;79.50;;;;;;5028940;28;20235;-73
2023/05/31 06:10:30;;;;;;;8.55;2.78;;;29.30;78.80;;;;;;5028986;28;20223;-73
2023/05/31 06:12:55;;;;;;;9.32;3.17;;;30.10;76.80;;;;;;5008387;28;20220;-73
2023/05/31 06:15:21;;;;;;;5.43;2.70;;;29.70;75.60;;;;;;5027310;28;20230;-73
2023/05/31 06:17:50;;;;;;;6.63;2.83;;;29.70;76.10;;;;;;5025625;28;20261;-72
2023/05/31 06:20:16;;;;;;;8.00;2.85;;;30.20;76.10;;;;;;5026550;28;20617;-72
2023/05/31 06:22:42;;;;;;;9.02;3.15;;;30.30;74.70;;;;;;5023717;28;20295;-73
2023/05/31 06:25:08;;;;;;;5.57;3.15;;;30.40;75.30;;;;;;5024311;28;20204;-73
2023/05/31 06:27:34;;;;;;;12.65;3.50;;;31.10;74.00;;;;;;5023338;28;20215;-73
2023/05/31 06:30:00;;;;;;;7.85;3.28;;;31.30;73.60;;;;;;5022712;28;20176;-73
2023/05/31 06:32:27;;;;;;;11.45;3.83;;;30.80;71.80;;;;;;5023227;28;20295;-72
2023/05/31 06:34:53;;;;;;;8.23;3.70;;;30.30;72.30;;;;;;5020058;28;20694;-72
2023/05/31 06:37:20;;;;;;;8.90;3.97;;;30.70;72.60;;;;;;5025416;28;20219;-73
2023/05/31 06:39:46;;;;;;;17.48;5.05;;;30.90;72.40;;;;;;5029849;28;20218;-73
2023/05/31 06:42:13;;;;;;;7.40;3.70;;;31.30;73.20;;;;;;5012299;28;20212;-72
2023/05/31 06:44:38;;;;;;;10.40;3.83;;;31.10;72.20;;;;;;5013217;28;20171;-74
2023/05/31 06:47:04;;;;;;;8.40;3.95;;;31.20;72.00;;;;;;5012161;28;20254;-73
2023/05/31 06:49:30;;;;;;;9.05;3.85;;;30.80;72.40;;;;;;5013021;28;20636;-73
2023/05/31 06:51:57;;;;;;;6.90;3.20;;;30.20;72.20;;;;;;5027146;28;20216;-73
2023/05/31 06:54:23;;;;;;;6.53;4.70;;;30.20;72.20;;;;;;5012478;28;20211;-73
2023/05/31 06:56:48;;;;;;;8.88;4.60;;;30.70;73.00;;;;;;5022540;28;20547;-71
2023/05/31 06:59:14;;;;;;;9.15;3.72;;;31.00;71.60;;;;;;5025868;28;20211;-72
2023/05/31 07:01:40;;;;;;;9.02;3.40;;;30.70;71.30;;;;;;5023845;28;20242;-73
2023/05/31 07:04:05;;;;;;;9.48;3.53;;;31.10;71.50;;;;;;5022946;28;20216;-73
2023/05/31 07:06:31;;;;;;;8.93;3.33;;;32.00;70.90;;;;;;5006291;28;20212;-73
2023/05/31 07:08:57;;;;;;;5.35;2.85;;;32.50;69.50;;;;;;5024246;28;20215;-73
2023/05/31 07:11:23;;;;;;;5.82;2.63;;;32.10;67.60;;;;;;5022509;28;20211;-73
2023/05/31 07:13:49;;;;;;;7.93;2.85;;;32.20;68.30;;;;;;5008766;28;20200;-72
2023/05/31 07:16:15;;;;;;;7.05;2.95;;;32.30;68.00;;;;;;5026191;28;20258;-72
2023/05/31 07:18:40;;;;;;;8.23;3.55;;;32.30;67.90;;;;;;5029665;28;20207;-73
2023/05/31 07:21:08;;;;;;;6.43;3.38;;;32.50;67.40;;;;;;5028044;28;20262;-72
2023/05/31 07:23:33;;;;;;;6.18;3.33;;;32.20;67.10;;;;;;5028588;28;20199;-72
2023/05/31 07:26:00;;;;;;;7.30;3.30;;;32.40;66.70;;;;;;5026535;28;20683;-72
2023/05/31 07:28:26;;;;;;;8.30;3.47;;;32.60;66.40;;;;;;5012641;28;20204;-73
2023/05/31 07:30:51;;;;;;;5.80;2.83;;;32.50;67.30;;;;;;5025158;28;20211;-73
2023/05/31 07:33:17;;;;;;;5.53;3.05;;;32.80;66.80;;;;;;5026382;28;20254;-73
2023/05/31 07:35:43;;;;;;;9.82;3.50;;;31.70;66.80;;;;;;5011066;28;20176;-73
2023/05/31 07:38:09;;;;;;;4.05;2.72;;;32.30;67.70;;;;;;5026544;28;20259;-73
2023/05/31 07:40:34;;;;;;;6.78;2.60;;;32.50;67.40;;;;;;5023929;28;20212;-73
2023/05/31 07:43:00;;;;;;;7.53;4.07;;;32.90;66.50;;;;;;5021596;28;20223;-73
2023/05/31 07:45:26;;;;;;;6.07;2.88;;;33.40;65.00;;;;;;5011872;28;20307;-73
2023/05/31 07:47:52;;;;;;;5.13;2.70;;;32.60;65.50;;;;;;5020322;28;20818;-72
2023/05/31 07:50:18;;;;;;;4.88;2.53;;;32.90;65.80;;;;;;5012180;28;20642;-73
2023/05/31 07:52:49;;;;;;;7.80;2.80;;;33.10;65.30;;;;;;5019481;28;20251;-75
2023/05/31 07:55:16;;;;;;;5.20;2.42;;;32.80;64.00;;;;;;5032646;28;20748;-75
2023/05/31 07:57:41;;;;;;;5.97;2.53;;;32.10;64.10;;;;;;5016231;28;20208;-75
2023/05/31 08:00:08;;;;;;;4.13;2.40;;;31.70;65.20;;;;;;5031858;28;20189;-75
2023/05/31 08:02:34;;;;;;;4.70;2.53;;;31.00;66.10;;;;;;5032396;28;20200;-73
2023/05/31 08:05:01;;;;;;;4.68;2.75;;;31.40;66.00;;;;;;5029461;28;20203;-75
2023/05/31 08:07:27;;;;;;;5.32;3.00;;;31.30;65.20;;;;;;5031558;28;20203;-74
2023/05/31 08:09:53;;;;;;;5.95;2.38;;;31.20;65.20;;;;;;5014143;28;20211;-73
2023/05/31 08:12:19;;;;;;;7.05;2.60;;;31.40;65.70;;;;;;5029730;28;20196;-74
2023/05/31 08:14:45;;;;;;;4.95;2.45;;;31.20;65.20;;;;;;5010085;28;20180;-74
2023/05/31 08:17:10;;;;;;;4.45;2.53;;;31.70;66.10;;;;;;5027790;28;20342;-75
2023/05/31 08:19:36;;;;;;;6.53;2.83;;;29.70;66.20;;;;;;5027644;28;20213;-75
2023/05/31 08:22:02;;;;;;;6.22;2.70;;;30.40;66.30;;;;;;5025115;28;20220;-74
2023/05/31 08:24:28;;;;;;;5.57;2.55;;;29.50;66.70;;;;;;5026405;28;20221;-74
2023/05/31 08:26:56;;;;;;;6.68;4.03;;;29.80;67.80;;;;;;5023652;28;20677;-73
2023/05/31 08:29:21;;;;;;;4.43;3.10;;;30.20;66.60;;;;;;5025767;28;20212;-75
2023/05/31 08:31:47;;;;;;;6.63;2.50;;;30.30;66.70;;;;;;5025586;28;20215;-75
2023/05/31 08:34:13;;;;;;;4.13;2.30;;;30.10;65.40;;;;;;5010729;28;20200;-74
2023/05/31 08:36:40;;;;;;;8.13;2.42;;;29.40;65.10;;;;;;5030491;28;20239;-74
2023/05/31 08:39:07;;;;;;;5.47;2.55;;;29.20;65.60;;;;;;5011377;28;20612;-74
2023/05/31 08:41:42;;;;;;;5.93;2.40;;;29.60;64.10;;;;;;5012648;28;20243;-74
2023/05/31 08:44:08;;;;;;;5.85;2.42;;;28.90;65.50;;;;;;5028760;28;20321;-75
2023/05/31 08:46:35;;;;;;;7.88;2.92;;;28.40;66.50;;;;;;5015380;28;20200;-75
2023/05/31 08:49:13;;;;;;;5.18;2.20;;;28.80;66.90;;;;;;5029292;28;20712;-74
2023/05/31 08:51:40;;;;;;;3.78;2.10;;;29.00;66.70;;;;;;5030271;28;20269;-74
2023/05/31 08:54:06;;;;;;;3.58;2.05;;;28.30;66.30;;;;;;5012812;28;20181;-74
2023/05/31 08:56:33;;;;;;;4.47;2.83;;;28.80;66.80;;;;;;5024482;28;20539;-74
2023/05/31 08:58:58;;;;;;;4.07;2.42;;;28.30;65.90;;;;;;5023997;28;20263;-75
2023/05/31 09:01:27;;;;;;;3.33;1.70;;;28.30;66.40;;;;;;5026695;28;20216;-73
2023/05/31 09:03:53;;;;;;;4.40;1.70;;;27.10;67.70;;;;;;5022069;28;20255;-73
2023/05/31 09:06:19;;;;;;;5.82;2.53;;;27.40;66.80;;;;;;5014769;28;20185;-75
2023/05/31 09:08:45;;;;;;;4.50;1.88;;;27.70;66.10;;;;;;5027147;28;20185;-74
2023/05/31 09:11:12;;;;;;;6.95;2.20;;;27.60;65.90;;;;;;5027156;28;20204;-71
2023/05/31 09:13:37;;;;;;;4.88;2.63;;;28.00;66.00;;;;;;5014331;28;20303;-74
2023/05/31 09:16:04;;;;;;;4.85;2.13;;;28.60;65.70;;;;;;5012936;28;20287;-74
2023/05/31 09:18:36;;;;;;;2.40;1.83;;;28.40;64.30;;;;;;5030760;28;20565;-72
2023/05/31 09:21:14;;;;;;;3.55;1.85;;;28.90;63.40;;;;;;5012542;28;20184;-71
2023/05/31 09:24:00;;;;;;;4.30;2.40;;;28.50;62.60;;;;;;5029244;28;20192;-72
2023/05/31 09:26:27;;;;;;;7.45;2.45;;;27.50;64.40;;;;;;5026844;28;20215;-72
2023/05/31 09:28:54;;;;;;;2.78;1.63;;;27.50;66.50;;;;;;5026451;28;20766;-71
2023/05/31 09:31:20;;;;;;;6.70;2.13;;;27.60;65.90;;;;;;5027468;28;20216;-72
2023/05/31 09:33:48;;;;;;;2.75;1.92;;;27.70;66.10;;;;;;5026192;28;20942;-71
2023/05/31 09:36:14;;;;;;;4.75;2.05;;;27.40;66.70;;;;;;5012637;28;20181;-71
2023/05/31 09:38:40;;;;;;;5.18;2.20;;;27.00;66.60;;;;;;5032125;28;20180;-72
2023/05/31 09:41:20;;;;;;;5.75;2.17;;;27.20;66.60;;;;;;5023072;28;20288;-72
2023/05/31 09:43:48;;;;;;;3.65;2.13;;;27.00;67.30;;;;;;5022641;28;20292;-75
2023/05/31 09:46:15;;;;;;;3.80;1.77;;;27.10;68.10;;;;;;5005311;28;20205;-74
2023/05/31 09:48:42;;;;;;;6.05;1.90;;;27.60;66.50;;;;;;5022377;28;20754;-74
2023/05/31 09:51:12;;;;;;;5.45;2.13;;;27.90;63.50;;;;;;5028081;28;20199;-74
2023/05/31 09:53:44;;;;;;;7.15;3.05;;;27.90;64.60;;;;;;5031176;28;20172;-74
2023/05/31 09:56:11;;;;;;;4.30;2.25;;;27.10;66.90;;;;;;5029292;28;20254;-74
2023/05/31 09:58:37;;;;;;;7.90;2.53;;;27.10;66.50;;;;;;5030127;28;20686;-74
2023/05/31 10:01:03;;;;;;;6.65;2.55;;;27.40;67.90;;;;;;5028013;28;20278;-74
2023/05/31 10:03:31;;;;;;;4.68;2.03;;;27.60;68.40;;;;;;5013547;28;20220;-74
2023/05/31 10:05:56;;;;;;;4.70;2.08;;;27.20;67.50;;;;;;5026988;28;20176;-74
2023/05/31 10:08:23;;;;;;;4.47;2.22;;;27.00;67.70;;;;;;5025935;28;20551;-74
2023/05/31 10:10:48;;;;;;;5.57;2.00;;;27.20;67.60;;;;;;5026379;28;20211;-74
2023/05/31 10:13:18;;;;;;;6.57;2.40;;;27.40;67.90;;;;;;5024725;28;20817;-73
2023/05/31 10:15:48;;;;;;;5.32;2.22;;;27.50;67.90;;;;;;5024313;28;20700;-73
2023/05/31 10:18:17;;;;;;;3.47;1.85;;;27.70;67.40;;;;;;5023758;28;20575;-73
2023/05/31 10:20:55;;;;;;;4.72;2.20;;;27.60;66.30;;;;;;5013305;28;20211;-73
2023/05/31 10:23:23;;;;;;;5.55;2.03;;;27.50;66.20;;;;;;5022726;28;20732;-72
2023/05/31 10:26:13;;;;;;;5.15;1.92;;;27.70;66.90;;;;;;5020842;28;20287;-74
2023/05/31 10:28:56;;;;;;;6.03;2.05;;;27.80;66.30;;;;;;5028965;28;20202;-74
2023/05/31 10:31:26;;;;;;;3.67;2.03;;;28.10;66.40;;;;;;5029936;28;20205;-74
2023/05/31 10:33:57;;;;;;;4.55;2.10;;;28.20;66.80;;;;;;5008474;28;20208;-73
2023/05/31 10:36:23;;;;;;;3.05;1.58;;;26.70;67.50;;;;;;5026492;28;20656;-73
2023/05/31 10:38:55;;;;;;;10.15;4.25;;;26.90;67.20;;;;;;5013815;28;20172;-73
2023/05/31 10:41:26;;;;;;;4.15;2.60;;;27.10;66.50;;;;;;5009692;28;20246;-73
2023/05/31 10:43:59;;;;;;;2.65;1.60;;;26.90;66.00;;;;;;5026490;28;20243;-74
2023/05/31 10:46:31;;;;;;;4.43;2.10;;;27.10;67.00;;;;;;5027377;28;20212;-72
2023/05/31 10:49:00;;;;;;;3.05;1.73;;;27.40;66.80;;;;;;5025039;28;20204;-72
2023/05/31 10:51:38;;;;;;;2.58;1.70;;;27.80;66.90;;;;;;5012940;28;20208;-72
2023/05/31 10:54:04;;;;;;;2.20;1.58;;;27.90;65.80;;;;;;5009501;28;20180;-73
2023/05/31 10:56:30;;;;;;;3.05;2.00;;;27.50;65.80;;;;;;5025050;28;20705;-73
2023/05/31 10:58:55;;;;;;;4.30;2.00;;;27.20;67.00;;;;;;5022027;28;20576;-72
2023/05/31 11:01:21;;;;;;;3.42;1.83;;;27.30;67.20;;;;;;5022713;28;20208;-73
2023/05/31 11:03:49;;;;;;;3.65;1.67;;;27.40;65.90;;;;;;5002962;28;20805;-72
2023/05/31 11:06:17;;;;;;;3.00;1.20;;;26.80;67.30;;;;;;5019392;28;20578;-72
2023/05/31 11:09:10;;;;;;;5.68;2.50;;;26.70;66.20;;;;;;5013681;28;20203;-73
2023/05/31 11:11:39;;;;;;;4.40;1.70;;;27.20;66.60;;;;;;5027366;28;20726;-73
2023/05/31 11:14:29;;;;;;;3.45;1.63;;;26.90;66.10;;;;;;5027009;28;20234;-72
2023/05/31 11:17:05;;;;;;;2.55;1.77;;;26.90;66.30;;;;;;5025538;28;20291;-73
2023/05/31 11:19:35;;;;;;;4.43;2.13;;;27.30;66.30;;;;;;5022831;28;20227;-73
2023/05/31 11:22:13;;;;;;;2.22;1.30;;;27.60;65.90;;;;;;5025567;28;20262;-73
2023/05/31 11:24:39;;;;;;;4.80;1.65;;;27.60;64.40;;;;;;5012019;28;20250;-72
2023/05/31 11:27:14;;;;;;;4.47;1.75;;;27.00;64.80;;;;;;5023376;28;20195;-73
2023/05/31 11:29:52;;;;;;;4.78;1.30;;;27.00;66.00;;;;;;5025854;28;20172;-73
2023/05/31 11:32:40;;;;;;;3.08;1.80;;;27.20;66.40;;;;;;5023017;28;20232;-72
2023/05/31 11:35:08;;;;;;;4.20;1.55;;;26.70;65.30;;;;;;5005730;28;20726;-72
2023/05/31 11:37:37;;;;;;;2.55;1.85;;;26.70;66.60;;;;;;5011961;28;20204;-73
2023/05/31 11:40:08;;;;;;;3.70;2.50;;;26.90;66.90;;;;;;5008928;28;20586;-73
2023/05/31 11:42:36;;;;;;;3.13;1.73;;;26.90;66.70;;;;;;5022417;28;20219;-73
2023/05/31 11:45:10;;;;;;;2.65;1.40;;;26.10;66.80;;;;;;5016741;28;20184;-73
2023/05/31 11:48:14;;;;;;;2.83;1.35;;;26.00;66.60;;;;;;5023154;28;20180;-73
2023/05/31 11:50:42;;;;;;;5.88;1.63;;;25.90;67.70;;;;;;5021740;28;20204;-74
2023/05/31 11:53:10;;;;;;;1.35;1.13;;;26.20;67.70;;;;;;5012865;28;20208;-73
2023/05/31 11:55:36;;;;;;;1.83;1.08;;;26.10;67.00;;;;;;5030378;28;20687;-73
2023/05/31 11:58:05;;;;;;;2.65;1.38;;;26.10;66.80;;;;;;5009410;28;20206;-74
2023/05/31 12:00:31;;;;;;;3.90;1.00;;;26.40;67.30;;;;;;5012488;28;20570;-73
2023/05/31 12:02:57;;;;;;;2.33;1.20;;;26.50;67.10;;;;;;5025631;28;20205;-71
2023/05/31 12:05:24;;;;;;;3.20;1.50;;;26.50;67.00;;;;;;5010720;28;20212;-74
2023/05/31 12:07:53;;;;;;;1.48;1.10;;;26.50;66.80;;;;;;5011726;28;20204;-72
2023/05/31 12:10:19;;;;;;;1.67;0.90;;;26.60;66.70;;;;;;5022742;28;20212;-74
2023/05/31 12:12:46;;;;;;;3.22;2.05;;;26.70;66.20;;;;;;5022568;28;20212;-73
2023/05/31 12:15:12;;;;;;;4.45;1.90;;;26.70;65.90;;;;;;5008916;28;20208;-72
2023/05/31 12:17:39;;;;;;;3.80;1.05;;;26.80;66.10;;;;;;5023410;28;20169;-73
2023/05/31 12:20:05;;;;;;;7.03;5.32;;;26.50;66.60;;;;;;5008735;28;20204;-73
2023/05/31 12:22:31;;;;;;;2.08;1.10;;;26.70;67.90;;;;;;5021446;28;20208;-73
2023/05/31 12:24:57;;;;;;;1.20;1.02;;;26.50;66.60;;;;;;5025064;28;20211;-73
2023/05/31 12:27:29;;;;;;;1.80;1.13;;;26.40;68.20;;;;;;5028259;28;20216;-74
2023/05/31 12:30:03;;;;;;;2.03;1.17;;;26.00;67.60;;;;;;5012528;28;20546;-73
2023/05/31 12:32:29;;;;;;;1.05;0.80;;;25.80;68.70;;;;;;5027380;28;20261;-73
2023/05/31 12:35:08;;;;;;;2.00;0.85;;;26.00;68.40;;;;;;5002791;28;20243;-73
2023/05/31 12:37:38;;;;;;;2.92;0.82;;;26.00;68.20;;;;;;5021638;28;20311;-74
2023/05/31 12:40:12;;;;;;;1.92;0.80;;;26.00;68.40;;;;;;5012024;28;20700;-74
2023/05/31 12:42:38;;;;;;;3.10;0.80;;;25.90;67.20;;;;;;5025101;28;20632;-73
2023/05/31 12:45:05;;;;;;;2.47;1.00;;;26.00;68.20;;;;;;5026922;28;20169;-73
2023/05/31 12:47:32;;;;;;;4.72;1.27;;;26.10;67.70;;;;;;5029003;28;20204;-73
2023/05/31 12:50:05;;;;;;;1.40;1.10;;;26.10;67.20;;;;;;5009924;28;20212;-73